sensor_id;sensor_type;location;lat;lon;timestamp;P1;durP1;ratioP1;P2;durP2;ratioP2
58756;SDS011;44527;47.460;19.016;2022-12-07T00:02:32;17.23;;;10.07;;
58756;SDS011;44527;47.460;19.016;2022-12-07T00:05:34;22.27;;;9.77;;
58756;SDS011;44527;47.460;19.016;2022-12-07T00:08:37;16.30;;;9.50;;
58756;SDS011;44527;47.460;19.016;2022-12-07T00:11:40;20.48;;;9.98;;
58756;SDS011;44527;47.460;19.016;2022-12-07T00:14:42;19.73;;;9.75;;
58756;SDS011;44527;47.460;19.016;2022-12-07T00:17:45;23.87;;;10.85;;
58756;SDS011;44527;47.460;19.016;2022-12-07T00:20:47;15.98;;;9.00;;
58756;SDS011;44527;47.460;19.016;2022-12-07T00:23:50;21.83;;;9.65;;
58756;SDS011;44527;47.460;19.016;2022-12-07T00:26:55;21.33;;;10.10;;
58756;SDS011;44527;47.460;19.016;2022-12-07T00:30:01;18.98;;;9.80;;
58756;SDS011;44527;47.460;19.016;2022-12-07T00:33:05;19.25;;;9.43;;
58756;SDS011;44527;47.460;19.016;2022-12-07T00:36:09;16.35;;;8.73;;
58756;SDS011;44527;47.460;19.016;2022-12-07T00:39:12;19.12;;;9.93;;
58756;SDS011;44527;47.460;19.016;2022-12-07T00:42:15;20.25;;;9.65;;
58756;SDS011;44527;47.460;19.016;2022-12-07T00:45:17;20.48;;;9.63;;
58756;SDS011;44527;47.460;19.016;2022-12-07T00:48:20;26.05;;;10.30;;
58756;SDS011;44527;47.460;19.016;2022-12-07T00:51:23;26.48;;;9.43;;
58756;SDS011;44527;47.460;19.016;2022-12-07T00:54:27;17.77;;;9.68;;
58756;SDS011;44527;47.460;19.016;2022-12-07T00:57:30;21.45;;;9.80;;
58756;SDS011;44527;47.460;19.016;2022-12-07T01:00:32;17.40;;;8.82;;
58756;SDS011;44527;47.460;19.016;2022-12-07T01:03:37;22.50;;;10.73;;
58756;SDS011;44527;47.460;19.016;2022-12-07T01:06:40;27.05;;;10.48;;
58756;SDS011;44527;47.460;19.016;2022-12-07T01:09:42;18.27;;;9.82;;
58756;SDS011;44527;47.460;19.016;2022-12-07T01:12:45;25.30;;;9.93;;
58756;SDS011;44527;47.460;19.016;2022-12-07T01:15:47;25.02;;;8.68;;
58756;SDS011;44527;47.460;19.016;2022-12-07T01:18:50;22.55;;;9.38;;
58756;SDS011;44527;47.460;19.016;2022-12-07T01:21:55;19.55;;;9.85;;
58756;SDS011;44527;47.460;19.016;2022-12-07T01:24:57;19.10;;;9.95;;
58756;SDS011;44527;47.460;19.016;2022-12-07T01:27:59;16.42;;;8.90;;
58756;SDS011;44527;47.460;19.016;2022-12-07T01:31:03;20.50;;;9.40;;
58756;SDS011;44527;47.460;19.016;2022-12-07T01:34:07;16.55;;;8.23;;
58756;SDS011;44527;47.460;19.016;2022-12-07T01:37:10;20.55;;;9.27;;
58756;SDS011;44527;47.460;19.016;2022-12-07T01:40:12;17.15;;;8.43;;
58756;SDS011;44527;47.460;19.016;2022-12-07T01:43:17;20.83;;;9.70;;
58756;SDS011;44527;47.460;19.016;2022-12-07T01:46:20;16.95;;;9.10;;
58756;SDS011;44527;47.460;19.016;2022-12-07T01:49:26;21.75;;;10.25;;
58756;SDS011;44527;47.460;19.016;2022-12-07T01:52:30;24.37;;;9.98;;
58756;SDS011;44527;47.460;19.016;2022-12-07T01:55:36;15.05;;;8.07;;
58756;SDS011;44527;47.460;19.016;2022-12-07T01:58:40;19.08;;;9.63;;
58756;SDS011;44527;47.460;19.016;2022-12-07T02:01:43;16.87;;;9.23;;
58756;SDS011;44527;47.460;19.016;2022-12-07T02:04:46;18.20;;;8.52;;
58756;SDS011;44527;47.460;19.016;2022-12-07T02:07:48;15.40;;;8.45;;
58756;SDS011;44527;47.460;19.016;2022-12-07T02:10:52;17.60;;;8.38;;
58756;SDS011;44527;47.460;19.016;2022-12-07T02:13:59;19.02;;;8.90;;
58756;SDS011;44527;47.460;19.016;2022-12-07T02:17:17;16.98;;;8.85;;
58756;SDS011;44527;47.460;19.016;2022-12-07T02:20:30;17.55;;;8.45;;
58756;SDS011;44527;47.460;19.016;2022-12-07T02:23:39;17.08;;;8.23;;
58756;SDS011;44527;47.460;19.016;2022-12-07T02:30:18;21.48;;;9.57;;
58756;SDS011;44527;47.460;19.016;2022-12-07T02:33:29;16.52;;;8.93;;
58756;SDS011;44527;47.460;19.016;2022-12-07T02:36:39;16.33;;;8.27;;
58756;SDS011;44527;47.460;19.016;2022-12-07T02:39:47;17.30;;;8.93;;
58756;SDS011;44527;47.460;19.016;2022-12-07T02:43:01;15.23;;;8.10;;
58756;SDS011;44527;47.460;19.016;2022-12-07T02:46:17;15.43;;;9.02;;
58756;SDS011;44527;47.460;19.016;2022-12-07T02:49:25;14.90;;;8.13;;
58756;SDS011;44527;47.460;19.016;2022-12-07T02:52:29;16.08;;;8.45;;
58756;SDS011;44527;47.460;19.016;2022-12-07T02:55:34;20.52;;;8.50;;
58756;SDS011;44527;47.460;19.016;2022-12-07T03:14:56;13.70;;;7.50;;
58756;SDS011;44527;47.460;19.016;2022-12-07T03:18:05;13.48;;;8.10;;
58756;SDS011;44527;47.460;19.016;2022-12-07T03:21:14;14.27;;;7.78;;
58756;SDS011;44527;47.460;19.016;2022-12-07T03:24:20;20.27;;;8.90;;
58756;SDS011;44527;47.460;19.016;2022-12-07T03:27:27;20.30;;;10.10;;
58756;SDS011;44527;47.460;19.016;2022-12-07T03:31:01;19.45;;;9.73;;
58756;SDS011;44527;47.460;19.016;2022-12-07T03:34:11;19.42;;;9.68;;
58756;SDS011;44527;47.460;19.016;2022-12-07T03:37:20;17.05;;;9.13;;
58756;SDS011;44527;47.460;19.016;2022-12-07T03:40:35;13.38;;;7.43;;
58756;SDS011;44527;47.460;19.016;2022-12-07T03:43:45;11.80;;;7.15;;
58756;SDS011;44527;47.460;19.016;2022-12-07T03:46:50;13.60;;;7.65;;
58756;SDS011;44527;47.460;19.016;2022-12-07T03:50:22;15.75;;;7.45;;
58756;SDS011;44527;47.460;19.016;2022-12-07T03:53:39;14.00;;;7.30;;
58756;SDS011;44527;47.460;19.016;2022-12-07T03:56:46;13.68;;;7.30;;
58756;SDS011;44527;47.460;19.016;2022-12-07T03:59:49;10.70;;;6.55;;
58756;SDS011;44527;47.460;19.016;2022-12-07T04:02:54;13.77;;;6.75;;
58756;SDS011;44527;47.460;19.016;2022-12-07T04:05:57;17.20;;;7.25;;
58756;SDS011;44527;47.460;19.016;2022-12-07T04:09:00;15.27;;;7.60;;
58756;SDS011;44527;47.460;19.016;2022-12-07T04:12:03;13.15;;;6.53;;
58756;SDS011;44527;47.460;19.016;2022-12-07T04:15:05;11.55;;;6.55;;
58756;SDS011;44527;47.460;19.016;2022-12-07T04:18:09;13.48;;;7.18;;
58756;SDS011;44527;47.460;19.016;2022-12-07T04:21:11;14.87;;;7.25;;
58756;SDS011;44527;47.460;19.016;2022-12-07T04:24:14;13.40;;;7.30;;
58756;SDS011;44527;47.460;19.016;2022-12-07T04:27:16;15.52;;;7.85;;
58756;SDS011;44527;47.460;19.016;2022-12-07T04:30:19;16.75;;;8.23;;
58756;SDS011;44527;47.460;19.016;2022-12-07T04:33:21;14.98;;;7.47;;
58756;SDS011;44527;47.460;19.016;2022-12-07T04:36:23;11.73;;;6.78;;
58756;SDS011;44527;47.460;19.016;2022-12-07T04:39:29;14.87;;;7.05;;
58756;SDS011;44527;47.460;19.016;2022-12-07T04:42:34;14.80;;;7.97;;
58756;SDS011;44527;47.460;19.016;2022-12-07T04:45:36;15.52;;;7.97;;
58756;SDS011;44527;47.460;19.016;2022-12-07T04:48:38;14.38;;;7.80;;
58756;SDS011;44527;47.460;19.016;2022-12-07T04:51:41;16.92;;;7.43;;
58756;SDS011;44527;47.460;19.016;2022-12-07T04:54:44;11.70;;;7.37;;
58756;SDS011;44527;47.460;19.016;2022-12-07T04:57:46;13.10;;;7.47;;
58756;SDS011;44527;47.460;19.016;2022-12-07T05:00:48;15.32;;;7.85;;
58756;SDS011;44527;47.460;19.016;2022-12-07T05:03:51;11.68;;;7.10;;
58756;SDS011;44527;47.460;19.016;2022-12-07T05:06:54;16.27;;;7.68;;
58756;SDS011;44527;47.460;19.016;2022-12-07T05:09:56;14.82;;;8.57;;
58756;SDS011;44527;47.460;19.016;2022-12-07T05:12:58;12.68;;;7.45;;
58756;SDS011;44527;47.460;19.016;2022-12-07T05:16:01;15.23;;;7.50;;
58756;SDS011;44527;47.460;19.016;2022-12-07T05:19:04;15.23;;;7.72;;
58756;SDS011;44527;47.460;19.016;2022-12-07T05:22:07;14.77;;;8.05;;
58756;SDS011;44527;47.460;19.016;2022-12-07T05:25:10;13.30;;;7.47;;
58756;SDS011;44527;47.460;19.016;2022-12-07T05:28:12;14.98;;;7.35;;
58756;SDS011;44527;47.460;19.016;2022-12-07T05:31:15;12.98;;;7.20;;
58756;SDS011;44527;47.460;19.016;2022-12-07T05:34:17;15.65;;;8.05;;
58756;SDS011;44527;47.460;19.016;2022-12-07T05:37:20;15.68;;;8.27;;
58756;SDS011;44527;47.460;19.016;2022-12-07T05:40:22;14.55;;;8.77;;
58756;SDS011;44527;47.460;19.016;2022-12-07T05:43:25;16.00;;;9.30;;
58756;SDS011;44527;47.460;19.016;2022-12-07T05:46:27;16.60;;;8.65;;
58756;SDS011;44527;47.460;19.016;2022-12-07T05:49:30;14.02;;;9.18;;
58756;SDS011;44527;47.460;19.016;2022-12-07T05:52:32;17.85;;;8.50;;
58756;SDS011;44527;47.460;19.016;2022-12-07T05:55:35;18.48;;;8.98;;
58756;SDS011;44527;47.460;19.016;2022-12-07T05:58:37;16.27;;;9.18;;
58756;SDS011;44527;47.460;19.016;2022-12-07T06:02:00;17.50;;;9.35;;
58756;SDS011;44527;47.460;19.016;2022-12-07T06:05:04;20.95;;;11.10;;
58756;SDS011;44527;47.460;19.016;2022-12-07T06:08:07;20.37;;;10.90;;
58756;SDS011;44527;47.460;19.016;2022-12-07T06:11:09;24.65;;;12.32;;
58756;SDS011;44527;47.460;19.016;2022-12-07T06:14:30;24.25;;;12.45;;
58756;SDS011;44527;47.460;19.016;2022-12-07T06:17:33;25.00;;;12.40;;
58756;SDS011;44527;47.460;19.016;2022-12-07T06:20:35;24.75;;;13.32;;
58756;SDS011;44527;47.460;19.016;2022-12-07T06:23:37;22.48;;;11.98;;
58756;SDS011;44527;47.460;19.016;2022-12-07T06:26:40;21.12;;;12.60;;
58756;SDS011;44527;47.460;19.016;2022-12-07T06:29:43;22.62;;;10.25;;
58756;SDS011;44527;47.460;19.016;2022-12-07T06:32:45;20.98;;;10.00;;
58756;SDS011;44527;47.460;19.016;2022-12-07T06:35:48;16.77;;;9.82;;
58756;SDS011;44527;47.460;19.016;2022-12-07T06:38:50;21.00;;;10.60;;
58756;SDS011;44527;47.460;19.016;2022-12-07T06:41:52;20.00;;;10.73;;
58756;SDS011;44527;47.460;19.016;2022-12-07T06:44:55;21.58;;;10.52;;
58756;SDS011;44527;47.460;19.016;2022-12-07T06:47:58;19.55;;;10.45;;
58756;SDS011;44527;47.460;19.016;2022-12-07T06:51:00;21.45;;;10.82;;
58756;SDS011;44527;47.460;19.016;2022-12-07T06:54:03;24.50;;;14.73;;
58756;SDS011;44527;47.460;19.016;2022-12-07T06:57:06;29.70;;;15.10;;
58756;SDS011;44527;47.460;19.016;2022-12-07T07:00:09;26.05;;;13.82;;
58756;SDS011;44527;47.460;19.016;2022-12-07T07:03:12;24.85;;;13.82;;
58756;SDS011;44527;47.460;19.016;2022-12-07T07:06:14;26.30;;;13.05;;
58756;SDS011;44527;47.460;19.016;2022-12-07T07:09:17;23.80;;;12.85;;
58756;SDS011;44527;47.460;19.016;2022-12-07T07:12:19;25.60;;;12.70;;
58756;SDS011;44527;47.460;19.016;2022-12-07T07:15:22;25.25;;;14.50;;
58756;SDS011;44527;47.460;19.016;2022-12-07T07:18:25;28.52;;;14.45;;
58756;SDS011;44527;47.460;19.016;2022-12-07T07:21:27;36.38;;;14.45;;
58756;SDS011;44527;47.460;19.016;2022-12-07T07:24:30;24.67;;;11.38;;
58756;SDS011;44527;47.460;19.016;2022-12-07T07:27:32;22.10;;;10.50;;
58756;SDS011;44527;47.460;19.016;2022-12-07T07:30:34;22.83;;;11.12;;
58756;SDS011;44527;47.460;19.016;2022-12-07T07:33:37;19.58;;;11.12;;
58756;SDS011;44527;47.460;19.016;2022-12-07T07:36:39;20.05;;;9.88;;
58756;SDS011;44527;47.460;19.016;2022-12-07T07:39:42;23.23;;;10.07;;
58756;SDS011;44527;47.460;19.016;2022-12-07T07:42:46;17.75;;;9.70;;
58756;SDS011;44527;47.460;19.016;2022-12-07T07:45:50;19.87;;;10.70;;
58756;SDS011;44527;47.460;19.016;2022-12-07T07:48:52;18.50;;;10.52;;
58756;SDS011;44527;47.460;19.016;2022-12-07T07:51:55;21.25;;;11.27;;
58756;SDS011;44527;47.460;19.016;2022-12-07T07:54:58;19.27;;;10.73;;
58756;SDS011;44527;47.460;19.016;2022-12-07T07:58:00;21.50;;;12.13;;
58756;SDS011;44527;47.460;19.016;2022-12-07T08:01:03;18.23;;;11.18;;
58756;SDS011;44527;47.460;19.016;2022-12-07T08:04:09;18.95;;;10.82;;
58756;SDS011;44527;47.460;19.016;2022-12-07T08:07:13;17.25;;;10.05;;
58756;SDS011;44527;47.460;19.016;2022-12-07T08:10:17;22.80;;;10.68;;
58756;SDS011;44527;47.460;19.016;2022-12-07T08:13:19;20.58;;;11.07;;
58756;SDS011;44527;47.460;19.016;2022-12-07T08:16:21;19.15;;;10.43;;
58756;SDS011;44527;47.460;19.016;2022-12-07T08:19:26;19.80;;;11.57;;
58756;SDS011;44527;47.460;19.016;2022-12-07T08:22:28;21.83;;;10.55;;
58756;SDS011;44527;47.460;19.016;2022-12-07T08:25:31;26.08;;;10.85;;
58756;SDS011;44527;47.460;19.016;2022-12-07T08:28:33;23.52;;;11.10;;
58756;SDS011;44527;47.460;19.016;2022-12-07T08:31:36;22.33;;;10.90;;
58756;SDS011;44527;47.460;19.016;2022-12-07T08:34:38;22.50;;;10.85;;
58756;SDS011;44527;47.460;19.016;2022-12-07T08:37:40;18.92;;;11.27;;
58756;SDS011;44527;47.460;19.016;2022-12-07T08:40:43;19.75;;;11.10;;
58756;SDS011;44527;47.460;19.016;2022-12-07T08:43:45;27.83;;;12.13;;
58756;SDS011;44527;47.460;19.016;2022-12-07T08:46:49;21.00;;;11.93;;
58756;SDS011;44527;47.460;19.016;2022-12-07T08:50:00;19.60;;;10.88;;
58756;SDS011;44527;47.460;19.016;2022-12-07T08:53:06;19.12;;;10.85;;
58756;SDS011;44527;47.460;19.016;2022-12-07T08:56:08;22.48;;;10.88;;
58756;SDS011;44527;47.460;19.016;2022-12-07T08:59:12;17.70;;;10.80;;
58756;SDS011;44527;47.460;19.016;2022-12-07T09:02:16;19.17;;;10.32;;
58756;SDS011;44527;47.460;19.016;2022-12-07T09:05:19;24.63;;;11.02;;
58756;SDS011;44527;47.460;19.016;2022-12-07T09:08:22;17.85;;;10.00;;
58756;SDS011;44527;47.460;19.016;2022-12-07T09:11:31;21.83;;;11.25;;
58756;SDS011;44527;47.460;19.016;2022-12-07T09:14:33;18.20;;;10.90;;
58756;SDS011;44527;47.460;19.016;2022-12-07T09:17:36;15.48;;;9.00;;
58756;SDS011;44527;47.460;19.016;2022-12-07T09:20:39;19.90;;;11.07;;
58756;SDS011;44527;47.460;19.016;2022-12-07T09:23:41;16.52;;;9.23;;
58756;SDS011;44527;47.460;19.016;2022-12-07T09:26:44;19.70;;;10.68;;
58756;SDS011;44527;47.460;19.016;2022-12-07T09:29:47;17.58;;;9.20;;
58756;SDS011;44527;47.460;19.016;2022-12-07T09:32:49;13.62;;;8.52;;
58756;SDS011;44527;47.460;19.016;2022-12-07T09:35:51;13.90;;;8.02;;
58756;SDS011;44527;47.460;19.016;2022-12-07T09:38:53;13.85;;;7.87;;
58756;SDS011;44527;47.460;19.016;2022-12-07T09:41:56;12.82;;;7.35;;
58756;SDS011;44527;47.460;19.016;2022-12-07T09:44:59;13.43;;;7.45;;
58756;SDS011;44527;47.460;19.016;2022-12-07T09:48:03;15.35;;;8.32;;
58756;SDS011;44527;47.460;19.016;2022-12-07T09:51:17;13.80;;;7.55;;
58756;SDS011;44527;47.460;19.016;2022-12-07T09:54:25;12.32;;;7.75;;
58756;SDS011;44527;47.460;19.016;2022-12-07T09:57:28;12.55;;;7.53;;
58756;SDS011;44527;47.460;19.016;2022-12-07T10:00:33;11.75;;;7.05;;
58756;SDS011;44527;47.460;19.016;2022-12-07T10:03:40;16.37;;;7.78;;
58756;SDS011;44527;47.460;19.016;2022-12-07T10:07:04;15.60;;;8.00;;
58756;SDS011;44527;47.460;19.016;2022-12-07T10:10:12;14.70;;;7.78;;
58756;SDS011;44527;47.460;19.016;2022-12-07T10:13:19;13.65;;;7.53;;
58756;SDS011;44527;47.460;19.016;2022-12-07T10:16:39;13.90;;;7.57;;
58756;SDS011;44527;47.460;19.016;2022-12-07T10:19:42;19.40;;;9.30;;
58756;SDS011;44527;47.460;19.016;2022-12-07T10:26:25;12.85;;;7.72;;
58756;SDS011;44527;47.460;19.016;2022-12-07T10:29:37;15.80;;;7.90;;
58756;SDS011;44527;47.460;19.016;2022-12-07T10:32:41;12.25;;;7.22;;
58756;SDS011;44527;47.460;19.016;2022-12-07T10:35:43;13.18;;;7.18;;
58756;SDS011;44527;47.460;19.016;2022-12-07T10:38:46;17.20;;;7.90;;
58756;SDS011;44527;47.460;19.016;2022-12-07T10:41:55;13.02;;;7.75;;
58756;SDS011;44527;47.460;19.016;2022-12-07T10:45:12;12.10;;;7.05;;
58756;SDS011;44527;47.460;19.016;2022-12-07T10:55:08;9.43;;;5.93;;
58756;SDS011;44527;47.460;19.016;2022-12-07T11:16:33;8.55;;;5.30;;
58756;SDS011;44527;47.460;19.016;2022-12-07T11:23:13;9.65;;;6.05;;
58756;SDS011;44527;47.460;19.016;2022-12-07T11:36:36;9.40;;;5.53;;
58756;SDS011;44527;47.460;19.016;2022-12-07T11:39:52;10.98;;;6.00;;
58756;SDS011;44527;47.460;19.016;2022-12-07T11:42:59;9.90;;;5.53;;
58756;SDS011;44527;47.460;19.016;2022-12-07T11:46:14;14.63;;;6.45;;
58756;SDS011;44527;47.460;19.016;2022-12-07T11:49:21;16.90;;;5.95;;
58756;SDS011;44527;47.460;19.016;2022-12-07T11:55:57;9.88;;;6.03;;
58756;SDS011;44527;47.460;19.016;2022-12-07T11:59:19;11.38;;;6.00;;
58756;SDS011;44527;47.460;19.016;2022-12-07T12:02:34;12.98;;;6.90;;
58756;SDS011;44527;47.460;19.016;2022-12-07T12:05:46;11.50;;;6.72;;
58756;SDS011;44527;47.460;19.016;2022-12-07T12:09:05;8.60;;;6.12;;
58756;SDS011;44527;47.460;19.016;2022-12-07T12:16:39;9.93;;;5.40;;
58756;SDS011;44527;47.460;19.016;2022-12-07T12:26:34;18.98;;;5.90;;
58756;SDS011;44527;47.460;19.016;2022-12-07T12:29:39;12.13;;;5.82;;
58756;SDS011;44527;47.460;19.016;2022-12-07T12:32:44;8.75;;;5.20;;
58756;SDS011;44527;47.460;19.016;2022-12-07T12:35:47;10.73;;;5.78;;
58756;SDS011;44527;47.460;19.016;2022-12-07T12:39:18;10.43;;;5.28;;
58756;SDS011;44527;47.460;19.016;2022-12-07T12:42:42;8.90;;;5.37;;
58756;SDS011;44527;47.460;19.016;2022-12-07T12:45:47;12.68;;;6.32;;
58756;SDS011;44527;47.460;19.016;2022-12-07T12:48:49;11.35;;;6.25;;
58756;SDS011;44527;47.460;19.016;2022-12-07T12:51:56;10.95;;;6.57;;
58756;SDS011;44527;47.460;19.016;2022-12-07T13:04:39;11.23;;;6.50;;
58756;SDS011;44527;47.460;19.016;2022-12-07T13:07:53;8.95;;;5.70;;
58756;SDS011;44527;47.460;19.016;2022-12-07T13:11:15;11.00;;;5.87;;
58756;SDS011;44527;47.460;19.016;2022-12-07T13:17:54;11.25;;;5.55;;
58756;SDS011;44527;47.460;19.016;2022-12-07T13:21:02;9.68;;;5.40;;
58756;SDS011;44527;47.460;19.016;2022-12-07T13:24:12;13.18;;;6.68;;
58756;SDS011;44527;47.460;19.016;2022-12-07T13:27:15;10.13;;;5.28;;
58756;SDS011;44527;47.460;19.016;2022-12-07T13:30:19;12.18;;;5.75;;
58756;SDS011;44527;47.460;19.016;2022-12-07T13:33:24;12.60;;;6.45;;
58756;SDS011;44527;47.460;19.016;2022-12-07T13:36:38;9.17;;;5.47;;
58756;SDS011;44527;47.460;19.016;2022-12-07T13:39:48;8.90;;;5.05;;
58756;SDS011;44527;47.460;19.016;2022-12-07T13:43:00;11.43;;;5.85;;
58756;SDS011;44527;47.460;19.016;2022-12-07T13:46:04;11.38;;;5.30;;
58756;SDS011;44527;47.460;19.016;2022-12-07T13:49:18;9.50;;;5.15;;
58756;SDS011;44527;47.460;19.016;2022-12-07T13:52:29;10.27;;;5.50;;
58756;SDS011;44527;47.460;19.016;2022-12-07T13:55:32;9.13;;;5.35;;
58756;SDS011;44527;47.460;19.016;2022-12-07T13:58:34;11.35;;;6.18;;
58756;SDS011;44527;47.460;19.016;2022-12-07T14:01:37;16.50;;;6.55;;
58756;SDS011;44527;47.460;19.016;2022-12-07T14:04:40;12.40;;;6.35;;
58756;SDS011;44527;47.460;19.016;2022-12-07T14:11:15;9.05;;;5.20;;
58756;SDS011;44527;47.460;19.016;2022-12-07T14:14:21;10.85;;;6.15;;
58756;SDS011;44527;47.460;19.016;2022-12-07T14:17:26;13.77;;;6.50;;
58756;SDS011;44527;47.460;19.016;2022-12-07T14:20:39;9.93;;;5.78;;
58756;SDS011;44527;47.460;19.016;2022-12-07T14:27:19;14.40;;;6.70;;
58756;SDS011;44527;47.460;19.016;2022-12-07T14:30:28;21.75;;;7.22;;
58756;SDS011;44527;47.460;19.016;2022-12-07T14:33:32;16.12;;;7.05;;
58756;SDS011;44527;47.460;19.016;2022-12-07T14:36:34;11.43;;;6.03;;
58756;SDS011;44527;47.460;19.016;2022-12-07T14:39:36;12.88;;;7.05;;
58756;SDS011;44527;47.460;19.016;2022-12-07T14:42:39;12.20;;;7.05;;
58756;SDS011;44527;47.460;19.016;2022-12-07T14:45:44;14.63;;;6.87;;
58756;SDS011;44527;47.460;19.016;2022-12-07T14:48:46;14.45;;;8.35;;
58756;SDS011;44527;47.460;19.016;2022-12-07T14:52:27;16.17;;;7.28;;
58756;SDS011;44527;47.460;19.016;2022-12-07T14:56:02;15.93;;;7.70;;
58756;SDS011;44527;47.460;19.016;2022-12-07T14:59:10;22.73;;;8.07;;
58756;SDS011;44527;47.460;19.016;2022-12-07T15:02:14;23.85;;;8.32;;
58756;SDS011;44527;47.460;19.016;2022-12-07T15:05:18;18.55;;;8.68;;
58756;SDS011;44527;47.460;19.016;2022-12-07T15:08:22;13.85;;;8.35;;
58756;SDS011;44527;47.460;19.016;2022-12-07T15:11:25;13.77;;;8.25;;
58756;SDS011;44527;47.460;19.016;2022-12-07T15:14:28;15.88;;;8.52;;
58756;SDS011;44527;47.460;19.016;2022-12-07T15:17:31;19.10;;;9.43;;
58756;SDS011;44527;47.460;19.016;2022-12-07T15:20:35;21.95;;;9.57;;
58756;SDS011;44527;47.460;19.016;2022-12-07T15:23:48;21.80;;;11.00;;
58756;SDS011;44527;47.460;19.016;2022-12-07T15:26:50;19.80;;;9.05;;
58756;SDS011;44527;47.460;19.016;2022-12-07T15:29:54;21.83;;;8.23;;
58756;SDS011;44527;47.460;19.016;2022-12-07T15:32:56;19.25;;;8.40;;
58756;SDS011;44527;47.460;19.016;2022-12-07T15:35:59;14.32;;;7.95;;
58756;SDS011;44527;47.460;19.016;2022-12-07T15:39:02;17.05;;;7.97;;
58756;SDS011;44527;47.460;19.016;2022-12-07T15:42:20;15.82;;;8.52;;
58756;SDS011;44527;47.460;19.016;2022-12-07T15:45:23;18.67;;;8.02;;
58756;SDS011;44527;47.460;19.016;2022-12-07T15:48:27;20.92;;;7.80;;
58756;SDS011;44527;47.460;19.016;2022-12-07T15:51:32;15.52;;;7.87;;
58756;SDS011;44527;47.460;19.016;2022-12-07T15:54:34;19.75;;;9.65;;
58756;SDS011;44527;47.460;19.016;2022-12-07T15:57:37;16.95;;;7.40;;
58756;SDS011;44527;47.460;19.016;2022-12-07T16:00:40;17.33;;;9.05;;
58756;SDS011;44527;47.460;19.016;2022-12-07T16:03:43;20.33;;;8.80;;
58756;SDS011;44527;47.460;19.016;2022-12-07T16:06:46;16.48;;;8.15;;
58756;SDS011;44527;47.460;19.016;2022-12-07T16:09:48;16.45;;;8.45;;
58756;SDS011;44527;47.460;19.016;2022-12-07T16:12:53;21.02;;;8.73;;
58756;SDS011;44527;47.460;19.016;2022-12-07T16:15:56;21.98;;;9.70;;
58756;SDS011;44527;47.460;19.016;2022-12-07T16:18:58;21.55;;;9.15;;
58756;SDS011;44527;47.460;19.016;2022-12-07T16:22:01;18.95;;;9.77;;
58756;SDS011;44527;47.460;19.016;2022-12-07T16:25:04;18.95;;;9.13;;
58756;SDS011;44527;47.460;19.016;2022-12-07T16:28:07;24.50;;;8.98;;
58756;SDS011;44527;47.460;19.016;2022-12-07T16:31:13;21.02;;;10.45;;
58756;SDS011;44527;47.460;19.016;2022-12-07T16:34:17;26.27;;;11.32;;
58756;SDS011;44527;47.460;19.016;2022-12-07T16:37:20;22.87;;;11.25;;
58756;SDS011;44527;47.460;19.016;2022-12-07T16:40:22;31.60;;;11.07;;
58756;SDS011;44527;47.460;19.016;2022-12-07T16:43:25;23.08;;;10.68;;
58756;SDS011;44527;47.460;19.016;2022-12-07T16:46:28;25.45;;;10.93;;
58756;SDS011;44527;47.460;19.016;2022-12-07T16:49:30;21.10;;;10.32;;
58756;SDS011;44527;47.460;19.016;2022-12-07T16:52:33;21.48;;;10.63;;
58756;SDS011;44527;47.460;19.016;2022-12-07T16:55:36;23.10;;;10.48;;
58756;SDS011;44527;47.460;19.016;2022-12-07T16:58:40;25.12;;;12.88;;
58756;SDS011;44527;47.460;19.016;2022-12-07T17:01:43;30.05;;;12.82;;
58756;SDS011;44527;47.460;19.016;2022-12-07T17:04:46;22.40;;;11.12;;
58756;SDS011;44527;47.460;19.016;2022-12-07T17:07:48;29.12;;;13.35;;
58756;SDS011;44527;47.460;19.016;2022-12-07T17:10:52;36.13;;;13.85;;
58756;SDS011;44527;47.460;19.016;2022-12-07T17:13:54;40.63;;;14.60;;
58756;SDS011;44527;47.460;19.016;2022-12-07T17:17:17;39.15;;;17.42;;
58756;SDS011;44527;47.460;19.016;2022-12-07T17:20:20;45.65;;;18.75;;
58756;SDS011;44527;47.460;19.016;2022-12-07T17:23:24;47.28;;;20.75;;
58756;SDS011;44527;47.460;19.016;2022-12-07T17:26:28;43.90;;;18.10;;
58756;SDS011;44527;47.460;19.016;2022-12-07T17:32:38;48.65;;;15.00;;
58756;SDS011;44527;47.460;19.016;2022-12-07T17:35:41;34.90;;;15.32;;
58756;SDS011;44527;47.460;19.016;2022-12-07T17:38:43;34.30;;;15.38;;
58756;SDS011;44527;47.460;19.016;2022-12-07T17:41:46;38.80;;;15.23;;
58756;SDS011;44527;47.460;19.016;2022-12-07T17:45:08;29.48;;;14.73;;
58756;SDS011;44527;47.460;19.016;2022-12-07T17:48:11;33.95;;;12.95;;
58756;SDS011;44527;47.460;19.016;2022-12-07T17:51:14;25.15;;;12.90;;
58756;SDS011;44527;47.460;19.016;2022-12-07T17:54:35;31.95;;;14.63;;
58756;SDS011;44527;47.460;19.016;2022-12-07T17:57:37;34.35;;;15.10;;
58756;SDS011;44527;47.460;19.016;2022-12-07T18:00:40;37.60;;;14.32;;
58756;SDS011;44527;47.460;19.016;2022-12-07T18:03:43;30.05;;;14.32;;
58756;SDS011;44527;47.460;19.016;2022-12-07T18:06:45;31.55;;;14.40;;
58756;SDS011;44527;47.460;19.016;2022-12-07T18:09:53;47.85;;;16.23;;
58756;SDS011;44527;47.460;19.016;2022-12-07T18:12:55;43.40;;;17.37;;
58756;SDS011;44527;47.460;19.016;2022-12-07T18:16:19;50.25;;;22.35;;
58756;SDS011;44527;47.460;19.016;2022-12-07T18:19:25;55.95;;;22.27;;
58756;SDS011;44527;47.460;19.016;2022-12-07T18:22:27;50.03;;;22.37;;
58756;SDS011;44527;47.460;19.016;2022-12-07T18:25:30;49.67;;;24.55;;
58756;SDS011;44527;47.460;19.016;2022-12-07T18:28:32;53.03;;;24.15;;
58756;SDS011;44527;47.460;19.016;2022-12-07T18:31:35;56.15;;;26.23;;
58756;SDS011;44527;47.460;19.016;2022-12-07T18:34:38;54.33;;;24.15;;
58756;SDS011;44527;47.460;19.016;2022-12-07T18:37:42;55.12;;;22.77;;
58756;SDS011;44527;47.460;19.016;2022-12-07T18:40:44;47.53;;;22.20;;
58756;SDS011;44527;47.460;19.016;2022-12-07T18:43:47;52.97;;;22.90;;
58756;SDS011;44527;47.460;19.016;2022-12-07T18:46:49;49.53;;;23.33;;
58756;SDS011;44527;47.460;19.016;2022-12-07T18:49:52;51.10;;;21.75;;
58756;SDS011;44527;47.460;19.016;2022-12-07T18:52:56;57.50;;;22.87;;
58756;SDS011;44527;47.460;19.016;2022-12-07T18:56:14;72.10;;;25.23;;
58756;SDS011;44527;47.460;19.016;2022-12-07T18:59:18;71.80;;;25.70;;
58756;SDS011;44527;47.460;19.016;2022-12-07T19:02:39;76.70;;;25.00;;
58756;SDS011;44527;47.460;19.016;2022-12-07T19:05:42;59.05;;;23.23;;
58756;SDS011;44527;47.460;19.016;2022-12-07T19:08:44;61.85;;;23.30;;
58756;SDS011;44527;47.460;19.016;2022-12-07T19:11:46;51.22;;;20.52;;
58756;SDS011;44527;47.460;19.016;2022-12-07T19:14:53;45.92;;;20.12;;
58756;SDS011;44527;47.460;19.016;2022-12-07T19:17:56;52.08;;;20.90;;
58756;SDS011;44527;47.460;19.016;2022-12-07T19:21:01;52.45;;;21.50;;
58756;SDS011;44527;47.460;19.016;2022-12-07T19:24:05;41.95;;;21.12;;
58756;SDS011;44527;47.460;19.016;2022-12-07T19:27:08;44.75;;;20.95;;
58756;SDS011;44527;47.460;19.016;2022-12-07T19:30:12;51.45;;;18.92;;
58756;SDS011;44527;47.460;19.016;2022-12-07T19:33:14;42.83;;;20.02;;
58756;SDS011;44527;47.460;19.016;2022-12-07T19:36:17;41.67;;;19.73;;
58756;SDS011;44527;47.460;19.016;2022-12-07T19:39:19;51.08;;;20.55;;
58756;SDS011;44527;47.460;19.016;2022-12-07T19:42:22;55.45;;;21.17;;